createdAt,value
2019-06-10T00:01:31.443Z,15.00
2019-06-10T00:04:05.150Z,15.00
2019-06-10T00:06:31.216Z,15.00
2019-06-10T00:09:03.156Z,15.00
2019-06-10T00:11:31.386Z,15.00
2019-06-10T00:14:02.427Z,15.10
2019-06-10T00:16:30.893Z,15.10
2019-06-10T00:19:02.824Z,15.00
2019-06-10T00:21:30.838Z,15.00
2019-06-10T00:24:01.676Z,15.00
2019-06-10T00:26:30.759Z,15.00
2019-06-10T00:29:00.714Z,15.00
2019-06-10T00:31:31.298Z,15.00
2019-06-10T00:34:02.915Z,14.90
2019-06-10T00:36:30.979Z,14.90
2019-06-10T00:38:59.374Z,14.90
2019-06-10T00:41:27.831Z,14.90
2019-06-10T00:43:56.365Z,14.90
2019-06-10T00:46:24.893Z,14.90
2019-06-10T00:48:53.311Z,14.90
2019-06-10T00:51:21.827Z,14.90
2019-06-10T00:53:51.356Z,14.80
2019-06-10T00:56:21.642Z,14.90
2019-06-10T00:58:51.435Z,14.90
2019-06-10T01:01:22.002Z,14.90
2019-06-10T01:03:51.422Z,14.90
2019-06-10T01:06:21.348Z,14.90
2019-06-10T01:08:51.256Z,14.90
2019-06-10T01:11:26.765Z,14.90
2019-06-10T01:13:50.778Z,14.80
2019-06-10T01:16:21.650Z,14.80
2019-06-10T01:18:53.234Z,14.70
2019-06-10T01:21:21.803Z,14.80
2019-06-10T01:23:51.181Z,14.80
2019-06-10T01:26:21.600Z,14.70
2019-06-10T01:28:51.670Z,14.70
2019-06-10T01:31:23.473Z,14.70
2019-06-10T01:33:51.342Z,14.70
2019-06-10T01:36:21.070Z,14.60
2019-06-10T01:38:51.156Z,14.60
2019-06-10T01:41:21.424Z,14.60
2019-06-10T01:43:51.337Z,14.60
2019-06-10T01:46:21.312Z,14.60
2019-06-10T01:48:52.135Z,14.60
2019-06-10T01:51:21.300Z,14.60
2019-06-10T01:53:51.480Z,14.50
2019-06-10T01:56:21.417Z,14.40
2019-06-10T01:58:51.387Z,14.30
2019-06-10T02:01:35.299Z,14.30
2019-06-10T02:04:04.052Z,14.30
2019-06-10T02:06:32.057Z,14.10
2019-06-10T02:09:05.101Z,14.10
2019-06-10T02:11:36.284Z,14.00
2019-06-10T02:14:05.720Z,13.90
2019-06-10T02:16:34.464Z,13.80
2019-06-10T02:19:04.193Z,13.70
2019-06-10T02:21:32.620Z,13.70
2019-06-10T02:24:01.058Z,13.60
2019-06-10T02:26:30.883Z,13.50
2019-06-10T02:29:00.722Z,13.40
2019-06-10T02:31:37.013Z,13.30
2019-06-10T02:34:02.246Z,13.20
2019-06-10T02:36:35.469Z,13.10
2019-06-10T02:39:04.297Z,13.00
2019-06-10T02:41:35.961Z,12.90
2019-06-10T02:44:04.339Z,12.80
2019-06-10T02:46:35.991Z,12.80
2019-06-10T02:49:21.405Z,12.80
2019-06-10T02:51:35.786Z,12.70
2019-06-10T02:54:04.823Z,12.80
2019-06-10T02:56:36.422Z,12.70
2019-06-10T02:59:03.711Z,12.60
2019-06-10T03:01:37.627Z,12.70
2019-06-10T03:04:04.664Z,12.70
2019-06-10T03:06:39.310Z,12.70
2019-06-10T03:09:04.316Z,12.80
2019-06-10T03:11:36.889Z,12.80
2019-06-10T03:14:03.187Z,12.80
2019-06-10T03:16:36.991Z,12.90
2019-06-10T03:19:05.403Z,12.90
2019-06-10T03:21:33.389Z,13.00
2019-06-10T03:24:02.691Z,13.00
2019-06-10T03:26:32.257Z,13.00
2019-06-10T03:29:02.517Z,13.00
2019-06-10T03:31:40.122Z,13.00
2019-06-10T03:34:05.072Z,13.00
2019-06-10T03:36:32.514Z,13.00
2019-06-10T03:39:02.553Z,13.10
2019-06-10T03:41:32.310Z,13.10
2019-06-10T03:44:02.498Z,13.00
2019-06-10T03:46:32.699Z,13.10
2019-06-10T03:49:03.130Z,13.00
2019-06-10T03:51:33.330Z,13.00
2019-06-10T03:54:02.511Z,13.10
2019-06-10T03:56:32.284Z,13.20
2019-06-10T03:59:02.615Z,13.20
2019-06-10T04:01:33.331Z,13.20
2019-06-10T04:04:02.359Z,13.30
2019-06-10T04:06:33.506Z,13.40
2019-06-10T04:09:02.631Z,13.40
2019-06-10T04:11:33.033Z,13.40
2019-06-10T04:14:02.344Z,13.40
2019-06-10T04:16:32.594Z,13.30
2019-06-10T04:19:02.524Z,13.40
2019-06-10T04:21:32.425Z,13.50
2019-06-10T04:24:02.310Z,13.60
2019-06-10T04:26:32.711Z,13.70
2019-06-10T04:29:02.454Z,13.80
2019-06-10T04:31:33.095Z,13.90
2019-06-10T04:34:03.166Z,13.90
2019-06-10T04:36:33.336Z,13.90
2019-06-10T04:39:04.321Z,13.90
2019-06-10T04:41:33.210Z,14.00
2019-06-10T04:44:02.704Z,14.00
2019-06-10T04:46:32.468Z,14.00
2019-06-10T04:49:02.810Z,14.10
2019-06-10T04:51:32.933Z,14.20
2019-06-10T04:54:03.193Z,14.30
2019-06-10T04:56:33.380Z,14.30
2019-06-10T04:59:03.230Z,14.30
2019-06-10T05:01:33.425Z,14.30
2019-06-10T05:04:03.151Z,14.40
2019-06-10T05:06:32.746Z,14.40
2019-06-10T05:09:04.018Z,14.40
2019-06-10T05:11:33.087Z,14.40
2019-06-10T05:14:02.778Z,14.40
2019-06-10T05:16:35.342Z,14.50
2019-06-10T05:19:03.764Z,14.50
2019-06-10T05:21:34.996Z,14.50
2019-06-10T05:24:03.360Z,14.50
2019-06-10T05:26:33.512Z,14.70
2019-06-10T05:29:03.062Z,14.70
2019-06-10T05:31:35.070Z,14.80
2019-06-10T05:34:02.502Z,14.90
2019-06-10T05:36:34.365Z,14.90
2019-06-10T05:39:02.769Z,14.90
2019-06-10T05:41:34.840Z,15.10
2019-06-10T05:44:02.682Z,15.20
2019-06-10T05:46:34.697Z,15.30
2019-06-10T05:49:03.062Z,15.40
2019-06-10T05:51:33.382Z,15.50
2019-06-10T05:54:02.598Z,15.50
2019-06-10T05:56:33.525Z,15.60
2019-06-10T05:59:04.219Z,15.60
2019-06-10T06:01:36.325Z,15.70
2019-06-10T06:04:03.241Z,15.70
2019-06-10T06:06:33.396Z,15.60
2019-06-10T06:09:02.275Z,15.70
2019-06-10T06:11:33.753Z,15.70
2019-06-10T06:14:02.674Z,15.70
2019-06-10T06:16:33.114Z,15.70
2019-06-10T06:19:03.209Z,15.70
2019-06-10T06:21:39.339Z,15.70
2019-06-10T06:24:03.877Z,15.80
2019-06-10T06:26:36.457Z,15.90
2019-06-10T06:29:03.064Z,15.90
2019-06-10T06:31:33.377Z,15.90
2019-06-10T06:34:03.010Z,16.00
2019-06-10T06:36:33.782Z,16.10
2019-06-10T06:39:02.791Z,16.10
2019-06-10T06:41:32.055Z,16.30
2019-06-10T06:44:02.448Z,16.40
2019-06-10T06:46:33.086Z,16.50
2019-06-10T06:49:02.662Z,16.60
2019-06-10T06:51:43.478Z,16.70
2019-06-10T06:54:03.297Z,16.60
2019-06-10T06:56:34.497Z,16.60
2019-06-10T06:59:02.610Z,16.80
2019-06-10T07:01:34.686Z,16.80
2019-06-10T07:04:03.586Z,16.70
2019-06-10T07:06:34.478Z,16.70
2019-06-10T07:09:08.221Z,16.90
2019-06-10T07:11:39.876Z,16.80
2019-06-10T07:14:10.155Z,16.90
2019-06-10T07:16:39.659Z,17.00
2019-06-10T07:19:09.411Z,17.20
2019-06-10T07:21:58.194Z,17.30
2019-06-10T07:24:09.081Z,17.30
2019-06-10T07:26:43.515Z,17.30
2019-06-10T07:29:07.931Z,17.20
2019-06-10T07:31:37.847Z,17.30
2019-06-10T07:34:07.411Z,17.70
2019-06-10T07:36:37.124Z,17.90
2019-06-10T07:39:09.502Z,17.70
2019-06-10T07:41:39.281Z,18.00
2019-06-10T07:44:09.647Z,18.00
2019-06-10T07:46:39.271Z,18.60
2019-06-10T07:49:08.267Z,18.70
2019-06-10T07:51:37.419Z,18.70
2019-06-10T07:54:05.925Z,18.70
2019-06-10T07:56:38.711Z,18.80
2019-06-10T07:59:05.054Z,18.80
2019-06-10T08:01:36.719Z,18.70
2019-06-10T08:04:05.499Z,18.80
2019-06-10T08:06:42.862Z,18.80
2019-06-10T08:09:12.683Z,18.90
2019-06-10T08:11:46.526Z,18.90
2019-06-10T08:14:13.623Z,19.10
2019-06-10T08:16:46.014Z,19.10
2019-06-10T08:19:34.963Z,18.80
2019-06-10T08:21:46.124Z,19.20
2019-06-10T08:24:15.209Z,19.40
2019-06-10T08:26:45.591Z,19.60
2019-06-10T08:29:14.684Z,19.30
2019-06-10T08:31:47.562Z,19.10
2019-06-10T08:34:13.528Z,19.70
2019-06-10T08:36:46.345Z,20.30
2019-06-10T08:39:15.750Z,20.80
2019-06-10T08:41:45.578Z,20.50
2019-06-10T08:44:14.137Z,21.00
2019-06-10T08:46:45.004Z,21.30
2019-06-10T08:49:15.397Z,20.50
2019-06-10T08:51:48.135Z,20.20
2019-06-10T08:54:15.357Z,20.70
2019-06-10T08:56:47.591Z,21.00
2019-06-10T08:59:14.585Z,21.70
2019-06-10T09:01:46.860Z,21.60
2019-06-10T09:04:16.736Z,21.20
2019-06-10T09:06:47.965Z,21.20
2019-06-10T09:09:24.740Z,21.50
2019-06-10T09:11:54.658Z,22.20
2019-06-10T09:14:25.454Z,22.20
2019-06-10T09:16:55.082Z,21.70
2019-06-10T09:19:23.604Z,21.80
2019-06-10T09:21:56.321Z,21.40
2019-06-10T09:24:25.066Z,21.20
2019-06-10T09:26:54.977Z,21.20
2019-06-10T09:29:23.472Z,21.40
2019-06-10T09:31:55.501Z,21.10
2019-06-10T09:34:23.869Z,21.40
2019-06-10T09:36:56.701Z,21.30
2019-06-10T09:39:23.047Z,21.10
2019-06-10T09:42:00.013Z,20.80
2019-06-10T09:44:22.862Z,20.80
2019-06-10T09:46:56.005Z,20.70
2019-06-10T09:49:28.518Z,20.40
2019-06-10T09:51:57.795Z,20.10
2019-06-10T09:54:26.586Z,20.00
2019-06-10T09:56:54.912Z,19.80
2019-06-10T09:59:23.615Z,19.40
2019-06-10T10:01:57.561Z,19.20
2019-06-10T10:04:23.594Z,19.10
2019-06-10T10:06:57.118Z,19.20
2019-06-10T10:09:23.350Z,19.20
2019-06-10T10:11:55.269Z,19.20
2019-06-10T10:14:23.113Z,19.30
2019-06-10T10:16:58.139Z,19.50
2019-06-10T10:19:23.146Z,19.40
2019-06-10T10:21:57.048Z,19.30
2019-06-10T10:24:22.990Z,19.30
2019-06-10T10:26:57.136Z,19.40
2019-06-10T10:29:21.745Z,19.40
2019-06-10T10:31:52.327Z,19.40
2019-06-10T10:34:22.838Z,19.70
2019-06-10T10:36:54.939Z,19.80
2019-06-10T10:39:24.335Z,20.10
2019-06-10T10:41:54.496Z,20.20
2019-06-10T10:44:21.389Z,20.40
2019-06-10T10:46:52.697Z,20.20
2019-06-10T10:49:22.216Z,20.10
2019-06-10T10:51:51.144Z,19.90
2019-06-10T10:54:29.754Z,19.50
2019-06-10T10:56:55.169Z,19.20
2019-06-10T10:59:22.050Z,18.80
2019-06-10T11:01:52.078Z,18.30
2019-06-10T11:04:23.150Z,17.70
2019-06-10T11:06:54.412Z,17.20
2019-06-10T11:09:23.968Z,16.90
2019-06-10T11:11:54.962Z,16.80
2019-06-10T11:14:25.441Z,16.70
2019-06-10T11:16:56.866Z,16.60
2019-06-10T11:19:24.015Z,16.50
2019-06-10T11:21:53.576Z,16.40
2019-06-10T11:24:33.617Z,16.40
2019-06-10T11:26:55.177Z,16.30
2019-06-10T11:29:22.621Z,16.20
2019-06-10T11:31:53.679Z,16.40
2019-06-10T11:34:22.085Z,16.40
2019-06-10T11:36:51.145Z,16.40
2019-06-10T11:39:22.540Z,16.30
2019-06-10T11:41:53.301Z,16.20
2019-06-10T11:44:22.483Z,16.10
2019-06-10T11:46:55.912Z,16.00
2019-06-10T11:49:23.807Z,15.90
2019-06-10T11:51:53.948Z,15.80
2019-06-10T11:54:24.020Z,15.70
2019-06-10T11:56:56.120Z,15.60
2019-06-10T11:59:23.129Z,15.50
2019-06-10T12:01:52.622Z,15.50
2019-06-10T12:04:23.777Z,15.50
2019-06-10T12:06:52.604Z,15.60
2019-06-10T12:09:23.011Z,15.90
2019-06-10T12:11:56.252Z,16.30
2019-06-10T12:14:26.803Z,16.90
2019-06-10T12:19:23.630Z,19.00
2019-06-10T12:21:55.648Z,19.60
2019-06-10T12:24:23.077Z,20.10
2019-06-10T12:26:55.476Z,20.40
2019-06-10T12:29:22.564Z,20.40
2019-06-10T12:31:53.811Z,20.60
2019-06-10T12:34:22.677Z,20.90
2019-06-10T12:36:56.200Z,21.10
2019-06-10T12:39:22.907Z,21.30
2019-06-10T12:41:54.831Z,21.70
2019-06-10T12:44:22.769Z,22.50
2019-06-10T12:46:54.903Z,23.20
2019-06-10T12:49:21.037Z,22.90
2019-06-10T12:51:49.573Z,23.20
2019-06-10T12:54:17.829Z,24.10
2019-06-10T12:56:45.822Z,24.20
2019-06-10T12:59:14.370Z,24.30
2019-06-10T13:01:44.898Z,24.10
2019-06-10T13:04:13.954Z,23.60
2019-06-10T13:06:45.376Z,23.60
2019-06-10T13:09:13.494Z,24.60
2019-06-10T13:11:43.362Z,25.70
2019-06-10T13:14:13.461Z,26.50
2019-06-10T13:16:43.269Z,26.60
2019-06-10T13:19:13.133Z,26.30
2019-06-10T13:21:42.578Z,26.10
2019-06-10T13:24:12.930Z,26.70
2019-06-10T13:26:42.986Z,26.30
2019-06-10T13:29:14.301Z,27.10
2019-06-10T13:31:43.259Z,27.40
2019-06-10T13:34:13.775Z,26.70
2019-06-10T13:36:42.256Z,26.90
2019-06-10T13:39:13.378Z,26.70
2019-06-10T13:41:43.481Z,26.70
2019-06-10T13:44:15.318Z,26.80
2019-06-10T13:46:42.551Z,26.80
2019-06-10T13:49:13.119Z,26.30
2019-06-10T13:51:43.937Z,26.10
2019-06-10T13:54:13.919Z,26.80
2019-06-10T13:56:47.095Z,26.90
2019-06-10T13:59:14.069Z,27.10
2019-06-10T14:01:42.797Z,26.40
2019-06-10T14:04:20.468Z,27.00
2019-06-10T14:06:49.781Z,27.80
2019-06-10T14:09:16.072Z,27.10
2019-06-10T14:11:42.608Z,27.00
2019-06-10T14:14:14.054Z,27.20
2019-06-10T14:16:42.357Z,27.60
2019-06-10T14:19:12.609Z,27.30
2019-06-10T14:21:42.360Z,27.30
2019-06-10T14:24:14.270Z,27.50
2019-06-10T14:26:45.184Z,27.70
2019-06-10T14:29:15.127Z,27.10
2019-06-10T14:31:45.109Z,26.50
2019-06-10T14:34:12.086Z,26.50
2019-06-10T14:36:40.339Z,26.80
2019-06-10T14:39:08.542Z,26.70
2019-06-10T14:41:37.492Z,26.70
2019-06-10T14:44:06.821Z,25.70
2019-06-10T14:46:35.244Z,24.80
2019-06-10T14:49:04.666Z,24.60
2019-06-10T14:51:33.246Z,25.60
2019-06-10T14:54:03.133Z,25.90
2019-06-10T14:56:33.399Z,25.80
2019-06-10T14:59:02.373Z,25.80
2019-06-10T15:01:32.203Z,26.40
2019-06-10T15:04:02.806Z,26.50
2019-06-10T15:06:32.807Z,26.40
2019-06-10T15:09:00.579Z,26.00
2019-06-10T15:11:28.929Z,25.60
2019-06-10T15:13:57.449Z,25.00
2019-06-10T15:16:25.518Z,24.60
2019-06-10T15:18:53.936Z,24.40
2019-06-10T15:21:23.210Z,24.40
2019-06-10T15:23:52.330Z,24.30
2019-06-10T15:26:20.693Z,24.30
2019-06-10T15:28:49.448Z,24.30
2019-06-10T15:31:18.309Z,24.50
2019-06-10T15:33:47.149Z,24.20
2019-06-10T15:36:15.314Z,23.80
2019-06-10T15:38:44.157Z,23.60
2019-06-10T15:41:16.027Z,23.80
2019-06-10T15:43:42.941Z,24.00
2019-06-10T15:46:12.906Z,23.80
2019-06-10T15:48:43.051Z,23.40
2019-06-10T15:51:15.348Z,23.20
2019-06-10T15:53:43.101Z,22.70
2019-06-10T15:56:23.877Z,22.30
2019-06-10T15:58:42.953Z,22.20
2019-06-10T16:01:14.489Z,22.20
2019-06-10T16:03:42.475Z,22.10
2019-06-10T16:06:12.157Z,22.10
2019-06-10T16:08:42.957Z,21.80
2019-06-10T16:11:10.173Z,21.70
2019-06-10T16:13:38.206Z,21.50
2019-06-10T16:16:06.630Z,21.40
2019-06-10T16:18:34.989Z,21.40
2019-06-10T16:21:04.225Z,21.20
2019-06-10T16:23:33.900Z,21.10
2019-06-10T16:26:02.737Z,21.00
2019-06-10T16:28:33.571Z,20.90
2019-06-10T16:31:02.814Z,20.80
2019-06-10T16:33:33.371Z,20.80
2019-06-10T16:36:02.899Z,20.60
2019-06-10T16:38:32.775Z,20.50
2019-06-10T16:41:03.478Z,20.50
2019-06-10T16:43:33.540Z,20.40
2019-06-10T16:46:03.280Z,20.30
2019-06-10T16:48:33.322Z,20.20
2019-06-10T16:51:03.464Z,20.10
2019-06-10T16:53:35.305Z,20.10
2019-06-10T16:56:03.304Z,20.00
2019-06-10T16:58:33.402Z,19.90
2019-06-10T17:01:03.424Z,19.90
2019-06-10T17:03:33.773Z,19.90
2019-06-10T17:06:02.610Z,20.00
2019-06-10T17:08:33.455Z,20.00
2019-06-10T17:11:03.412Z,19.90
2019-06-10T17:13:32.303Z,19.70
2019-06-10T17:16:00.255Z,19.70
2019-06-10T17:18:29.988Z,19.60
2019-06-10T17:20:58.334Z,19.50
2019-06-10T17:23:31.038Z,19.50
2019-06-10T17:25:57.068Z,19.40
2019-06-10T17:28:31.382Z,19.40
2019-06-10T17:31:03.428Z,19.40
2019-06-10T17:33:34.637Z,19.40
2019-06-10T17:36:03.114Z,19.30
2019-06-10T17:38:31.284Z,19.20
2019-06-10T17:40:59.820Z,18.90
2019-06-10T17:43:29.247Z,18.80
2019-06-10T17:45:57.487Z,18.60
2019-06-10T17:48:26.321Z,18.50
2019-06-10T17:50:55.880Z,18.40
2019-06-10T17:53:26.193Z,18.30
2019-06-10T17:55:54.872Z,18.30
2019-06-10T17:58:33.482Z,18.20
2019-06-10T18:00:53.384Z,18.20
2019-06-10T18:03:23.136Z,18.20
2019-06-10T18:05:53.317Z,18.20
2019-06-10T18:08:23.872Z,18.20
2019-06-10T18:10:53.556Z,18.00
2019-06-10T18:13:22.728Z,17.90
2019-06-10T18:15:53.456Z,17.70
2019-06-10T18:18:22.166Z,17.50
2019-06-10T18:20:53.513Z,17.40
2019-06-10T18:23:23.140Z,17.30
2019-06-10T18:25:52.678Z,17.30
2019-06-10T18:28:22.641Z,17.30
2019-06-10T18:30:53.146Z,17.10
2019-06-10T18:33:23.064Z,17.00
2019-06-10T18:35:53.221Z,16.80
2019-06-10T18:38:22.088Z,16.60
2019-06-10T18:40:53.365Z,16.60
2019-06-10T18:43:22.696Z,16.60
2019-06-10T18:45:52.985Z,16.80
2019-06-10T18:48:22.943Z,16.80
2019-06-10T18:50:53.283Z,16.70
2019-06-10T18:53:23.363Z,16.60
2019-06-10T18:55:54.517Z,16.60
2019-06-10T18:58:22.374Z,16.50
2019-06-10T19:01:00.670Z,16.50
2019-06-10T19:03:23.274Z,16.50
2019-06-10T19:05:52.915Z,16.40
2019-06-10T19:08:22.315Z,16.50
2019-06-10T19:10:53.376Z,16.50
2019-06-10T19:13:22.466Z,16.60
2019-06-10T19:15:52.958Z,16.60
2019-06-10T19:18:23.394Z,16.60
2019-06-10T19:20:53.011Z,16.60
2019-06-10T19:23:22.661Z,16.60
2019-06-10T19:25:52.481Z,16.50
2019-06-10T19:28:22.801Z,16.50
2019-06-10T19:30:53.098Z,16.40
2019-06-10T19:33:20.616Z,16.50
2019-06-10T19:35:49.722Z,16.50
2019-06-10T19:38:17.831Z,16.50
2019-06-10T19:40:45.826Z,16.40
2019-06-10T19:43:13.929Z,16.40
2019-06-10T19:45:42.736Z,16.50
2019-06-10T19:48:12.415Z,16.50
2019-06-10T19:50:47.610Z,16.40
2019-06-10T19:53:12.988Z,16.40
2019-06-10T19:55:43.424Z,16.40
2019-06-10T19:58:13.269Z,16.40
2019-06-10T20:00:41.595Z,16.40
2019-06-10T20:03:11.217Z,16.40
2019-06-10T20:05:40.022Z,16.30
2019-06-10T20:08:08.133Z,16.30
2019-06-10T20:10:36.245Z,16.30
2019-06-10T20:13:05.209Z,16.30
2019-06-10T20:15:33.537Z,16.20
2019-06-10T20:18:02.852Z,16.10
2019-06-10T20:20:33.292Z,16.00
2019-06-10T20:23:03.030Z,15.90
2019-06-10T20:25:32.873Z,15.90
2019-06-10T20:28:02.858Z,15.90
2019-06-10T20:30:33.261Z,15.80
2019-06-10T20:33:03.352Z,15.80
2019-06-10T20:35:32.787Z,15.70
2019-06-10T20:38:04.661Z,15.70
2019-06-10T20:40:32.055Z,15.60
2019-06-10T20:43:03.195Z,15.50
2019-06-10T20:45:33.174Z,15.50
2019-06-10T20:48:02.730Z,15.40
2019-06-10T20:50:32.402Z,15.40
2019-06-10T20:53:11.889Z,15.40
2019-06-10T20:55:40.669Z,15.40
2019-06-10T20:58:04.244Z,15.30
2019-06-10T21:00:35.566Z,15.30
2019-06-10T21:03:05.575Z,15.30
2019-06-10T21:05:36.564Z,15.20
2019-06-10T21:08:05.293Z,15.10
2019-06-10T21:10:35.353Z,15.10
2019-06-10T21:13:04.727Z,15.00
2019-06-10T21:15:33.493Z,14.90
2019-06-10T21:18:02.194Z,14.80
2019-06-10T21:20:33.140Z,14.70
2019-06-10T21:23:03.140Z,14.70
2019-06-10T21:25:32.473Z,14.60
2019-06-10T21:28:03.189Z,14.50
2019-06-10T21:30:39.751Z,14.40
2019-06-10T21:33:03.443Z,14.30
2019-06-10T21:35:30.984Z,14.30
2019-06-10T21:37:59.378Z,14.20
2019-06-10T21:40:27.293Z,14.20
2019-06-10T21:42:55.480Z,14.20
2019-06-10T21:45:23.912Z,14.20
2019-06-10T21:47:53.351Z,14.20
2019-06-10T21:50:22.659Z,14.20
2019-06-10T21:52:53.509Z,14.20
2019-06-10T21:55:22.474Z,14.20
2019-06-10T21:57:53.179Z,14.20
2019-06-10T22:00:26.168Z,14.10
2019-06-10T22:02:58.430Z,14.10
2019-06-10T22:05:24.492Z,14.10
2019-06-10T22:07:56.024Z,14.00
2019-06-10T22:10:22.985Z,14.00
2019-06-10T22:12:53.156Z,14.00
2019-06-10T22:15:22.612Z,14.00
2019-06-10T22:17:53.365Z,14.00
2019-06-10T22:20:22.738Z,14.00
2019-06-10T22:22:53.234Z,13.90
2019-06-10T22:25:22.393Z,14.00
2019-06-10T22:27:50.635Z,13.90
2019-06-10T22:30:19.294Z,13.70
2019-06-10T22:32:47.301Z,13.60
2019-06-10T22:35:15.721Z,13.60
2019-06-10T22:37:43.965Z,13.40
2019-06-10T22:40:12.443Z,13.30
2019-06-10T22:42:40.928Z,13.20
2019-06-10T22:45:09.412Z,13.10
2019-06-10T22:47:37.489Z,13.10
2019-06-10T22:50:07.594Z,13.10
2019-06-10T22:52:35.884Z,13.10
2019-06-10T22:55:04.377Z,13.00
2019-06-10T22:57:33.019Z,13.00
2019-06-10T23:00:03.129Z,12.90
2019-06-10T23:02:33.227Z,12.90
2019-06-10T23:05:05.105Z,12.80
2019-06-10T23:07:32.974Z,12.70
2019-06-10T23:10:03.230Z,12.60
2019-06-10T23:12:31.240Z,12.60
2019-06-10T23:14:59.558Z,12.60
2019-06-10T23:17:28.614Z,12.60
2019-06-10T23:19:58.019Z,12.50
2019-06-10T23:22:26.403Z,12.40
2019-06-10T23:24:55.503Z,12.30
2019-06-10T23:27:23.981Z,12.30
2019-06-10T23:29:53.917Z,12.20
2019-06-10T23:32:22.247Z,12.10
2019-06-10T23:34:54.027Z,12.20
2019-06-10T23:37:22.957Z,12.00
2019-06-10T23:39:52.744Z,12.00
2019-06-10T23:42:22.787Z,11.90
2019-06-10T23:44:51.326Z,11.80
2019-06-10T23:47:19.139Z,11.70
2019-06-10T23:49:47.337Z,11.60
2019-06-10T23:52:15.315Z,11.50
2019-06-10T23:54:43.196Z,11.40
2019-06-10T23:57:13.048Z,11.40
2019-06-10T23:59:42.778Z,11.30
